RYR564 EIDW-EGSS
Flight info
| Callsign | RYR564 |
|---|---|
| Flight time | 0h 49m |
| Altitude | 31000 |
| Route | ENDEQ1E ENDEQ Q36 NOSLO Z197 LISTO |
| Aircraft | B738/M-SDE2E3FGHIRWXY/LB1 |
Departure
| Time | 2026-05-04 09:32 |
|---|---|
| Airport | Dublin Airport (EIDW) |
Arrival
| Time | 2026-05-04 10:21 |
|---|---|
| Airport | London Stansted Airport (EGSS) |
| Time | Latitude | Longitude | Altitude | Speed | Heading |
|---|---|---|---|---|---|
| 2026-05-04 09:09 | 53.43018 | -6.24941 | 225 ft | 0 kts | 6° |
| 2026-05-04 09:22 | 53.43003 | -6.24943 | 225 ft | 5 kts | 359° |
| 2026-05-04 09:22 | 53.42977 | -6.24937 | 222 ft | 4 kts | 339° |
| 2026-05-04 09:22 | 53.42955 | -6.24915 | 220 ft | 4 kts | 304° |
| 2026-05-04 09:22 | 53.42949 | -6.24892 | 220 ft | 0 kts | 276° |
| 2026-05-04 09:25 | 53.42949 | -6.24893 | 220 ft | 0 kts | 276° |
| 2026-05-04 09:25 | 53.42950 | -6.24915 | 221 ft | 4 kts | 275° |
| 2026-05-04 09:26 | 53.42954 | -6.24989 | 220 ft | 9 kts | 275° |
| 2026-05-04 09:26 | 53.42960 | -6.25115 | 220 ft | 13 kts | 275° |
| 2026-05-04 09:26 | 53.42952 | -6.25274 | 223 ft | 15 kts | 247° |
| 2026-05-04 09:26 | 53.42893 | -6.25409 | 221 ft | 0 kts | 226° |
| 2026-05-04 09:27 | 53.42876 | -6.25439 | 222 ft | 8 kts | 226° |
| 2026-05-04 09:27 | 53.42817 | -6.25541 | 223 ft | 17 kts | 224° |
| 2026-05-04 09:28 | 53.42709 | -6.25718 | 219 ft | 23 kts | 220° |
| 2026-05-04 09:28 | 53.42569 | -6.25686 | 218 ft | 20 kts | 176° |
| 2026-05-04 09:28 | 53.42460 | -6.25822 | 215 ft | 20 kts | 225° |
| 2026-05-04 09:28 | 53.42366 | -6.25984 | 220 ft | 19 kts | 226° |
| 2026-05-04 09:29 | 53.42282 | -6.26151 | 224 ft | 19 kts | 245° |
| 2026-05-04 09:29 | 53.42272 | -6.26379 | 226 ft | 22 kts | 274° |
| 2026-05-04 09:29 | 53.42286 | -6.26641 | 231 ft | 24 kts | 274° |
| 2026-05-04 09:29 | 53.42303 | -6.26944 | 229 ft | 28 kts | 275° |
| 2026-05-04 09:30 | 53.42320 | -6.27288 | 229 ft | 31 kts | 275° |
| 2026-05-04 09:30 | 53.42341 | -6.27653 | 235 ft | 30 kts | 275° |
| 2026-05-04 09:30 | 53.42360 | -6.27978 | 241 ft | 19 kts | 275° |
| 2026-05-04 09:30 | 53.42329 | -6.28129 | 246 ft | 12 kts | 188° |
| 2026-05-04 09:31 | 53.42275 | -6.28054 | 244 ft | 11 kts | 123° |
| 2026-05-04 09:31 | 53.42224 | -6.27921 | 240 ft | 16 kts | 124° |
| 2026-05-04 09:31 | 53.42173 | -6.27714 | 237 ft | 26 kts | 96° |
| 2026-05-04 09:31 | 53.42136 | -6.27048 | 229 ft | 93 kts | 95° |
| 2026-05-04 09:32 | 53.42062 | -6.25593 | 226 ft | 154 kts | 92° |
| 2026-05-04 09:32 | 53.41964 | -6.23773 | 846 ft | 156 kts | 92° |
| 2026-05-04 09:34 | 53.41157 | -6.08820 | 4649 ft | 232 kts | 93° |
| 2026-05-04 09:34 | 53.40992 | -6.06067 | 5066 ft | 242 kts | 93° |
| 2026-05-04 09:34 | 53.40926 | -6.03240 | 5656 ft | 243 kts | 84° |
| 2026-05-04 09:34 | 53.41109 | -6.00414 | 6256 ft | 247 kts | 80° |
| 2026-05-04 09:35 | 53.41347 | -5.97435 | 6589 ft | 266 kts | 81° |
| 2026-05-04 09:35 | 53.41587 | -5.94325 | 7237 ft | 272 kts | 81° |
| 2026-05-04 09:35 | 53.41818 | -5.91161 | 7960 ft | 275 kts | 82° |
| 2026-05-04 09:35 | 53.42039 | -5.87956 | 8674 ft | 279 kts | 82° |
| 2026-05-04 09:37 | 53.43643 | -5.64028 | 11022 ft | 336 kts | 83° |
| 2026-05-04 09:37 | 53.43904 | -5.60107 | 11625 ft | 341 kts | 83° |
| 2026-05-04 09:38 | 53.44164 | -5.56143 | 12345 ft | 343 kts | 83° |
| 2026-05-04 09:38 | 53.44426 | -5.52147 | 13044 ft | 346 kts | 83° |
| 2026-05-04 09:38 | 53.44625 | -5.48090 | 13707 ft | 352 kts | 88° |
| 2026-05-04 09:38 | 53.44572 | -5.43938 | 14295 ft | 359 kts | 92° |
| 2026-05-04 09:39 | 53.44421 | -5.39746 | 14971 ft | 362 kts | 92° |
| 2026-05-04 09:39 | 53.44263 | -5.35522 | 15695 ft | 363 kts | 92° |
| 2026-05-04 09:39 | 53.44122 | -5.31285 | 16383 ft | 366 kts | 92° |
| 2026-05-04 09:39 | 53.43999 | -5.26996 | 17034 ft | 370 kts | 91° |
| 2026-05-04 09:40 | 53.43886 | -5.22675 | 17735 ft | 372 kts | 91° |
| 2026-05-04 09:40 | 53.43773 | -5.18320 | 18373 ft | 376 kts | 91° |
| 2026-05-04 09:40 | 53.43653 | -5.13926 | 18973 ft | 378 kts | 91° |
| 2026-05-04 09:40 | 53.43518 | -5.09532 | 19592 ft | 379 kts | 91° |
| 2026-05-04 09:41 | 53.43376 | -5.05088 | 20079 ft | 384 kts | 92° |
| 2026-05-04 09:42 | 53.42332 | -4.73301 | 23928 ft | 399 kts | 91° |
| 2026-05-04 09:43 | 53.42174 | -4.68646 | 24390 ft | 400 kts | 91° |
| 2026-05-04 09:43 | 53.42013 | -4.63988 | 24857 ft | 401 kts | 91° |
| 2026-05-04 09:43 | 53.41850 | -4.59308 | 25291 ft | 403 kts | 91° |
| 2026-05-04 09:43 | 53.41685 | -4.54617 | 25712 ft | 404 kts | 91° |
| 2026-05-04 09:44 | 53.41517 | -4.49904 | 26128 ft | 406 kts | 91° |
| 2026-05-04 09:44 | 53.41347 | -4.45170 | 26615 ft | 406 kts | 90° |
| 2026-05-04 09:44 | 53.41176 | -4.40469 | 27255 ft | 401 kts | 90° |
| 2026-05-04 09:46 | 53.39967 | -4.08521 | 30972 ft | 387 kts | 90° |
| 2026-05-04 09:46 | 53.39610 | -3.99431 | 31081 ft | 393 kts | 90° |
| 2026-05-04 09:47 | 53.39302 | -3.91887 | 31073 ft | 387 kts | 90° |
| 2026-05-04 09:49 | 53.37020 | -3.55796 | 31084 ft | 404 kts | 99° |
| 2026-05-04 09:51 | 53.32045 | -3.22291 | 31063 ft | 435 kts | 102° |
| 2026-05-04 09:51 | 53.30399 | -3.12551 | 31077 ft | 436 kts | 102° |
| 2026-05-04 09:52 | 53.28774 | -3.02806 | 31075 ft | 434 kts | 102° |
| 2026-05-04 09:52 | 53.27161 | -2.93103 | 31064 ft | 433 kts | 102° |
| 2026-05-04 09:53 | 53.25545 | -2.83447 | 31080 ft | 431 kts | 102° |
| 2026-05-04 09:53 | 53.23889 | -2.73837 | 31069 ft | 430 kts | 103° |
| 2026-05-04 09:54 | 53.22208 | -2.64280 | 31084 ft | 429 kts | 103° |
| 2026-05-04 09:54 | 53.20515 | -2.54674 | 31079 ft | 429 kts | 103° |
| 2026-05-04 09:55 | 53.18839 | -2.45183 | 31084 ft | 429 kts | 103° |
| 2026-05-04 09:55 | 53.17130 | -2.35558 | 31080 ft | 430 kts | 103° |
| 2026-05-04 09:56 | 53.15437 | -2.26070 | 31072 ft | 430 kts | 104° |
| 2026-05-04 09:56 | 53.14265 | -2.21403 | 31062 ft | 435 kts | 118° |
| 2026-05-04 09:56 | 53.12405 | -2.17486 | 31059 ft | 443 kts | 134° |
| 2026-05-04 09:57 | 53.07426 | -2.11234 | 31070 ft | 447 kts | 141° |
| 2026-05-04 09:57 | 53.02387 | -2.05291 | 31069 ft | 448 kts | 141° |
| 2026-05-04 09:58 | 52.97291 | -1.99188 | 31063 ft | 448 kts | 141° |
| 2026-05-04 09:58 | 52.92372 | -1.93251 | 31060 ft | 435 kts | 141° |
| 2026-05-04 10:00 | 52.75398 | -1.72836 | 28647 ft | 419 kts | 143° |
| 2026-05-04 10:00 | 52.72977 | -1.70201 | 28138 ft | 415 kts | 149° |
| 2026-05-04 10:02 | 52.55546 | -1.55530 | 24899 ft | 391 kts | 154° |
| 2026-05-04 10:04 | 52.39031 | -1.41466 | 21766 ft | 372 kts | 154° |
| 2026-05-04 10:04 | 52.36740 | -1.39524 | 21334 ft | 369 kts | 154° |
| 2026-05-04 10:04 | 52.34473 | -1.37603 | 20904 ft | 366 kts | 154° |
| 2026-05-04 10:04 | 52.32218 | -1.35696 | 20477 ft | 364 kts | 154° |
| 2026-05-04 10:05 | 52.29976 | -1.33805 | 20099 ft | 361 kts | 154° |
| 2026-05-04 10:05 | 52.27778 | -1.31875 | 19722 ft | 360 kts | 152° |
| 2026-05-04 10:05 | 52.25611 | -1.29835 | 19374 ft | 358 kts | 151° |
| 2026-05-04 10:05 | 52.23463 | -1.27774 | 19015 ft | 359 kts | 151° |
| 2026-05-04 10:06 | 52.21305 | -1.25706 | 18652 ft | 360 kts | 151° |
| 2026-05-04 10:06 | 52.19141 | -1.23645 | 18286 ft | 360 kts | 151° |
| 2026-05-04 10:06 | 52.16981 | -1.21601 | 17875 ft | 358 kts | 151° |
| 2026-05-04 10:08 | 52.04319 | -1.09730 | 15729 ft | 344 kts | 151° |
| 2026-05-04 10:08 | 52.02270 | -1.07745 | 15421 ft | 343 kts | 145° |
| 2026-05-04 10:08 | 52.00641 | -1.04920 | 15164 ft | 347 kts | 122° |
| 2026-05-04 10:08 | 51.99727 | -1.01301 | 14935 ft | 350 kts | 103° |
| 2026-05-04 10:09 | 51.99548 | -0.97364 | 14706 ft | 350 kts | 92° |
| 2026-05-04 10:09 | 51.99551 | -0.93418 | 14463 ft | 351 kts | 91° |
| 2026-05-04 10:09 | 51.99582 | -0.89460 | 14220 ft | 351 kts | 90° |
| 2026-05-04 10:09 | 51.99612 | -0.85502 | 13988 ft | 350 kts | 91° |
| 2026-05-04 10:10 | 51.99632 | -0.81555 | 13732 ft | 350 kts | 91° |
| 2026-05-04 10:10 | 51.99642 | -0.77613 | 13465 ft | 349 kts | 91° |
| 2026-05-04 10:10 | 51.99645 | -0.73694 | 13200 ft | 347 kts | 91° |
| 2026-05-04 10:10 | 51.99643 | -0.69785 | 12936 ft | 346 kts | 91° |
| 2026-05-04 10:11 | 51.99638 | -0.65895 | 12670 ft | 344 kts | 91° |
| 2026-05-04 10:11 | 51.99631 | -0.62022 | 12413 ft | 342 kts | 91° |
| 2026-05-04 10:11 | 51.99622 | -0.58167 | 12159 ft | 341 kts | 91° |
| 2026-05-04 10:11 | 51.99612 | -0.54334 | 11902 ft | 340 kts | 91° |
| 2026-05-04 10:12 | 51.99601 | -0.50502 | 11653 ft | 338 kts | 91° |
| 2026-05-04 10:12 | 51.99590 | -0.46717 | 11391 ft | 333 kts | 91° |
| 2026-05-04 10:12 | 51.99516 | -0.43000 | 11094 ft | 326 kts | 101° |
| 2026-05-04 10:12 | 51.98760 | -0.39619 | 10830 ft | 315 kts | 123° |
| 2026-05-04 10:13 | 51.97514 | -0.36788 | 10603 ft | 303 kts | 129° |
| 2026-05-04 10:13 | 51.96229 | -0.34146 | 10336 ft | 295 kts | 130° |
| 2026-05-04 10:13 | 51.94954 | -0.31563 | 9964 ft | 291 kts | 130° |
| 2026-05-04 10:13 | 51.93689 | -0.29016 | 9573 ft | 289 kts | 130° |
| 2026-05-04 10:14 | 51.92428 | -0.26484 | 9164 ft | 288 kts | 130° |
| 2026-05-04 10:14 | 51.91166 | -0.23957 | 8627 ft | 288 kts | 130° |
| 2026-05-04 10:16 | 51.80541 | -0.10233 | 5144 ft | 278 kts | 150° |
| 2026-05-04 10:16 | 51.78873 | -0.08683 | 4635 ft | 276 kts | 150° |
| 2026-05-04 10:16 | 51.77220 | -0.07127 | 4143 ft | 273 kts | 145° |
| 2026-05-04 10:16 | 51.75961 | -0.04887 | 3670 ft | 271 kts | 117° |
| 2026-05-04 10:17 | 51.75481 | -0.01989 | 3236 ft | 267 kts | 94° |
| 2026-05-04 10:17 | 51.75393 | 0.00986 | 2767 ft | 264 kts | 89° |
| 2026-05-04 10:19 | 51.81925 | 0.13589 | 1980 ft | 170 kts | 42° |
| 2026-05-04 10:19 | 51.82788 | 0.14889 | 1791 ft | 166 kts | 42° |
| 2026-05-04 10:19 | 51.83613 | 0.16130 | 1535 ft | 159 kts | 42° |
| 2026-05-04 10:19 | 51.84413 | 0.17327 | 1273 ft | 155 kts | 42° |
| 2026-05-04 10:20 | 51.85189 | 0.18482 | 1056 ft | 146 kts | 43° |
| 2026-05-04 10:20 | 51.85931 | 0.19605 | 875 ft | 147 kts | 43° |
| 2026-05-04 10:20 | 51.86681 | 0.20742 | 651 ft | 148 kts | 43° |
| 2026-05-04 10:20 | 51.87427 | 0.21873 | 457 ft | 145 kts | 43° |
| 2026-05-04 10:21 | 51.88154 | 0.22962 | 333 ft | 136 kts | 43° |
| 2026-05-04 10:21 | 51.88747 | 0.23846 | 333 ft | 66 kts | 43° |
| 2026-05-04 10:21 | 51.88872 | 0.24185 | 340 ft | 31 kts | 71° |
| 2026-05-04 10:21 | 51.88910 | 0.24375 | 346 ft | 0 kts | 71° |
| 2026-05-04 10:22 | 51.88911 | 0.24377 | 345 ft | 1 kts | 72° |
| 2026-05-04 10:23 | 51.88918 | 0.24422 | 347 ft | 8 kts | 77° |
| 2026-05-04 10:23 | 51.88907 | 0.24545 | 346 ft | 15 kts | 95° |
| 2026-05-04 10:25 | 51.89009 | 0.25665 | 346 ft | 7 kts | 47° |
| 2026-05-04 10:25 | 51.89033 | 0.25702 | 343 ft | 0 kts | 44° |